Погода Габоронена 2 недели

Юго-Восточная Провинция, Ботсвана

15 - 28 июля
  • 15июля
    Сегодня
    +3°
    +25°
    Ясно и безоблачно
    ВремяПогодаТемператураВлажностьДавлениеВетер, м/сВероятность осадков
    02:00Ясно и безоблачно+9°C35 %681 мм2.6 м/с1 %
    05:00Ясно и безоблачно+5°C44 %680 мм2.4 м/с1 %
    08:00Ясно и безоблачно+6°C44 %681 мм2.8 м/с1 %
    11:00Ясно и безоблачно+18°C23 %684 мм1.5 м/с1 %
    14:00Ясно и безоблачно+23°C12 %683 мм1.2 м/с1 %
    17:00Ясно и безоблачно+23°C24 %682 мм0.7 м/с1 %
    20:00Ясно и безоблачно+17°C19 %681 мм1.2 м/с1 %
    23:00Ясно и безоблачно+11°C23 %680 мм2.6 м/с1 %
  • 16июля
    Вторник
    +3°
    +28°
    Ясно и безоблачно
    ВремяПогодаТемператураВлажностьДавлениеВетер, м/сВероятность осадков
    02:00Ясно и безоблачно+7°C28 %679 мм2.7 м/с1 %
    05:00Ясно и безоблачно+4°C33 %678 мм2.6 м/с1 %
    08:00Ясно и безоблачно+7°C32 %680 мм1.8 м/с1 %
    11:00Ясно и безоблачно+19°C17 %682 мм0.1 м/с1 %
    14:00Ясно и безоблачно+25°C10 %681 мм1.7 м/с1 %
    17:00Ясно и безоблачно+26°C24 %681 мм1.2 м/с1 %
    20:00Ясно и безоблачно+16°C23 %679 мм3.0 м/с1 %
    23:00Ясно и безоблачно+12°C22 %679 мм0.6 м/с1 %
  • 17июля
    Среда
    +7°
    +29°
    Ясно и безоблачно
    ВремяПогодаТемператураВлажностьДавлениеВетер, м/сВероятность осадков
    02:00Ясно и безоблачно+8°C35 %677 мм1.9 м/с1 %
    05:00Ясно и безоблачно+4°C39 %677 мм1.8 м/с1 %
    08:00Ясно и безоблачно+7°C39 %679 мм1.0 м/с1 %
    11:00Ясно и безоблачно+21°C16 %683 мм1.0 м/с1 %
    14:00Ясно и безоблачно+27°C9 %682 мм2.1 м/с1 %
    17:00Ясно и безоблачно+27°C16 %681 мм1.9 м/с1 %
    20:00Ясно и безоблачно+17°C18 %679 мм3.0 м/с1 %
    23:00Ясно и безоблачно+14°C16 %679 мм0.8 м/с1 %
  • 18июля
    Четверг
    +7°
    +31°
    Ясно и безоблачно
    ВремяПогодаТемператураВлажностьДавлениеВетер, м/сВероятность осадков
    02:00Ясно и безоблачно+12°C20 %679 мм0.5 м/с1 %
    05:00Ясно и безоблачно+7°C23 %677 мм0.7 м/с1 %
    08:00Ясно и безоблачно+9°C38 %679 мм1.0 м/с1 %
    11:00Ясно и безоблачно+22°C20 %683 мм2.4 м/с1 %
    14:00Ясно и безоблачно+29°C9 %681 мм2.9 м/с1 %
    17:00Ясно и безоблачно+28°C25 %680 мм2.5 м/с1 %
    20:00Ясно и безоблачно+18°C16 %679 мм1.8 м/с1 %
    23:00Ясно и безоблачно+15°C20 %679 мм0.5 м/с1 %
  • 19июля
    Пятница
    +4°
    +32°
    Ясно и безоблачно
    ВремяПогодаТемператураВлажностьДавлениеВетер, м/сВероятность осадков
    02:00Ясно и безоблачно+11°C20 %677 мм0.3 м/с1 %
    05:00Ясно и безоблачно+8°C31 %676 мм1.9 м/с1 %
    08:00Ясно и безоблачно+9°C38 %678 мм0.9 м/с1 %
    11:00Ясно и безоблачно+22°C18 %681 мм0.5 м/с1 %
    14:00Ясно и безоблачно+30°C10 %680 мм1.8 м/с1 %
    17:00Ясно и безоблачно+29°C10 %679 мм3.0 м/с1 %
    20:00Ясно и безоблачно+18°C15 %678 мм2.6 м/с1 %
    23:00Ясно и безоблачно+14°C18 %678 мм3.2 м/с1 %
Мы используем cookies
Соглашаюсь